sensor_id;sensor_type;location;lat;lon;timestamp;temperature;humidity
7240;DHT22;3661;53.288;10.458;2022-08-04T00:02:21;21.70;99.90
7240;DHT22;3661;53.288;10.458;2022-08-04T00:05:00;21.60;99.90
7240;DHT22;3661;53.288;10.458;2022-08-04T00:07:40;21.60;99.90
7240;DHT22;3661;53.288;10.458;2022-08-04T00:10:16;21.50;99.90
7240;DHT22;3661;53.288;10.458;2022-08-04T00:12:51;21.50;99.90
7240;DHT22;3661;53.288;10.458;2022-08-04T00:15:28;21.40;99.90
7240;DHT22;3661;53.288;10.458;2022-08-04T00:18:04;21.40;99.90
7240;DHT22;3661;53.288;10.458;2022-08-04T00:20:38;21.40;99.90
7240;DHT22;3661;53.288;10.458;2022-08-04T00:23:12;21.30;99.90
7240;DHT22;3661;53.288;10.458;2022-08-04T00:25:46;21.30;99.90
7240;DHT22;3661;53.288;10.458;2022-08-04T00:28:20;21.30;99.90
7240;DHT22;3661;53.288;10.458;2022-08-04T00:30:55;21.20;99.90
7240;DHT22;3661;53.288;10.458;2022-08-04T00:33:27;21.20;99.90
7240;DHT22;3661;53.288;10.458;2022-08-04T00:36:00;21.20;99.90
7240;DHT22;3661;53.288;10.458;2022-08-04T00:38:33;21.10;99.90
7240;DHT22;3661;53.288;10.458;2022-08-04T00:41:12;21.10;99.90
7240;DHT22;3661;53.288;10.458;2022-08-04T00:50:25;21.00;99.90
7240;DHT22;3661;53.288;10.458;2022-08-04T00:53:07;21.00;99.90
7240;DHT22;3661;53.288;10.458;2022-08-04T00:56:21;20.90;99.90
7240;DHT22;3661;53.288;10.458;2022-08-04T00:59:16;20.90;99.90
7240;DHT22;3661;53.288;10.458;2022-08-04T01:01:59;20.90;99.90
7240;DHT22;3661;53.288;10.458;2022-08-04T01:04:44;20.80;99.90
7240;DHT22;3661;53.288;10.458;2022-08-04T01:07:56;20.80;99.90
7240;DHT22;3661;53.288;10.458;2022-08-04T01:10:40;20.70;99.90
7240;DHT22;3661;53.288;10.458;2022-08-04T01:16:24;20.70;99.90
7240;DHT22;3661;53.288;10.458;2022-08-04T01:18:59;20.60;99.90
7240;DHT22;3661;53.288;10.458;2022-08-04T01:22:19;20.60;99.90
7240;DHT22;3661;53.288;10.458;2022-08-04T01:25:09;20.50;99.90
7240;DHT22;3661;53.288;10.458;2022-08-04T01:28:05;20.50;99.90
7240;DHT22;3661;53.288;10.458;2022-08-04T01:30:48;20.50;99.90
7240;DHT22;3661;53.288;10.458;2022-08-04T01:33:28;20.40;99.90
7240;DHT22;3661;53.288;10.458;2022-08-04T01:36:03;20.40;99.90
7240;DHT22;3661;53.288;10.458;2022-08-04T01:38:38;20.40;99.90
7240;DHT22;3661;53.288;10.458;2022-08-04T01:41:13;20.30;99.90
7240;DHT22;3661;53.288;10.458;2022-08-04T01:43:47;20.30;99.90
7240;DHT22;3661;53.288;10.458;2022-08-04T01:46:22;20.30;99.90
7240;DHT22;3661;53.288;10.458;2022-08-04T01:48:57;20.20;99.90
7240;DHT22;3661;53.288;10.458;2022-08-04T01:51:30;20.20;99.90
7240;DHT22;3661;53.288;10.458;2022-08-04T01:54:06;20.20;99.90
7240;DHT22;3661;53.288;10.458;2022-08-04T01:56:41;20.10;99.90
7240;DHT22;3661;53.288;10.458;2022-08-04T01:59:17;20.10;99.90
7240;DHT22;3661;53.288;10.458;2022-08-04T02:01:51;20.10;99.90
7240;DHT22;3661;53.288;10.458;2022-08-04T02:04:23;20.10;99.90
7240;DHT22;3661;53.288;10.458;2022-08-04T02:07:06;20.10;99.90
7240;DHT22;3661;53.288;10.458;2022-08-04T02:09:52;20.00;99.90
7240;DHT22;3661;53.288;10.458;2022-08-04T02:12:39;20.00;99.90
7240;DHT22;3661;53.288;10.458;2022-08-04T02:15:25;20.00;99.90
7240;DHT22;3661;53.288;10.458;2022-08-04T02:18:13;19.90;99.90
7240;DHT22;3661;53.288;10.458;2022-08-04T02:20:48;19.90;99.90
7240;DHT22;3661;53.288;10.458;2022-08-04T02:23:29;19.90;99.90
7240;DHT22;3661;53.288;10.458;2022-08-04T02:26:03;19.80;99.90
7240;DHT22;3661;53.288;10.458;2022-08-04T02:28:38;19.80;99.90
7240;DHT22;3661;53.288;10.458;2022-08-04T02:31:23;19.80;99.90
7240;DHT22;3661;53.288;10.458;2022-08-04T02:34:06;19.70;99.90
7240;DHT22;3661;53.288;10.458;2022-08-04T02:36:40;19.70;99.90
7240;DHT22;3661;53.288;10.458;2022-08-04T02:39:18;19.70;99.90
7240;DHT22;3661;53.288;10.458;2022-08-04T02:41:52;19.70;99.90
7240;DHT22;3661;53.288;10.458;2022-08-04T02:44:27;19.60;99.90
7240;DHT22;3661;53.288;10.458;2022-08-04T02:47:02;19.60;99.90
7240;DHT22;3661;53.288;10.458;2022-08-04T02:49:37;19.60;99.90
7240;DHT22;3661;53.288;10.458;2022-08-04T02:52:11;19.50;99.90
7240;DHT22;3661;53.288;10.458;2022-08-04T02:54:46;19.50;99.90
7240;DHT22;3661;53.288;10.458;2022-08-04T02:57:23;19.40;99.90
7240;DHT22;3661;53.288;10.458;2022-08-04T03:00:05;19.40;99.90
7240;DHT22;3661;53.288;10.458;2022-08-04T03:03:05;19.40;99.90
7240;DHT22;3661;53.288;10.458;2022-08-04T03:05:52;19.30;99.90
7240;DHT22;3661;53.288;10.458;2022-08-04T03:08:48;19.30;99.90
7240;DHT22;3661;53.288;10.458;2022-08-04T03:11:50;19.30;99.90
7240;DHT22;3661;53.288;10.458;2022-08-04T03:18:00;19.20;99.90
7240;DHT22;3661;53.288;10.458;2022-08-04T03:21:03;19.10;99.90
7240;DHT22;3661;53.288;10.458;2022-08-04T03:23:58;19.10;99.90
7240;DHT22;3661;53.288;10.458;2022-08-04T03:27:06;19.10;99.90
7240;DHT22;3661;53.288;10.458;2022-08-04T03:30:04;19.10;99.90
7240;DHT22;3661;53.288;10.458;2022-08-04T03:48:44;18.90;99.90
7240;DHT22;3661;53.288;10.458;2022-08-04T03:51:37;18.90;99.90
7240;DHT22;3661;53.288;10.458;2022-08-04T03:55:22;18.90;99.90
7240;DHT22;3661;53.288;10.458;2022-08-04T04:01:22;18.80;99.90
7240;DHT22;3661;53.288;10.458;2022-08-04T04:07:40;18.80;99.90
7240;DHT22;3661;53.288;10.458;2022-08-04T04:10:29;18.80;99.90
7240;DHT22;3661;53.288;10.458;2022-08-04T04:16:24;18.70;99.90
7240;DHT22;3661;53.288;10.458;2022-08-04T04:19:35;18.70;99.90
7240;DHT22;3661;53.288;10.458;2022-08-04T04:22:34;18.70;99.90
7240;DHT22;3661;53.288;10.458;2022-08-04T04:25:18;18.70;99.90
7240;DHT22;3661;53.288;10.458;2022-08-04T04:28:10;18.70;99.90
7240;DHT22;3661;53.288;10.458;2022-08-04T04:30:57;18.70;99.90
7240;DHT22;3661;53.288;10.458;2022-08-04T04:33:46;18.70;99.90
7240;DHT22;3661;53.288;10.458;2022-08-04T04:36:29;18.70;99.90
7240;DHT22;3661;53.288;10.458;2022-08-04T04:39:13;18.70;99.90
7240;DHT22;3661;53.288;10.458;2022-08-04T04:42:06;18.70;99.90
7240;DHT22;3661;53.288;10.458;2022-08-04T04:45:02;18.70;99.90
7240;DHT22;3661;53.288;10.458;2022-08-04T04:47:44;18.70;99.90
7240;DHT22;3661;53.288;10.458;2022-08-04T04:50:25;18.70;99.90
7240;DHT22;3661;53.288;10.458;2022-08-04T04:53:06;18.80;99.90
7240;DHT22;3661;53.288;10.458;2022-08-04T04:55:44;18.90;99.90
7240;DHT22;3661;53.288;10.458;2022-08-04T04:58:20;19.00;99.90
7240;DHT22;3661;53.288;10.458;2022-08-04T05:04:17;19.10;99.90
7240;DHT22;3661;53.288;10.458;2022-08-04T05:07:07;19.30;99.90
7240;DHT22;3661;53.288;10.458;2022-08-04T05:09:53;19.30;99.90
7240;DHT22;3661;53.288;10.458;2022-08-04T05:12:50;19.40;99.90
7240;DHT22;3661;53.288;10.458;2022-08-04T05:15:29;19.50;99.90
7240;DHT22;3661;53.288;10.458;2022-08-04T05:18:04;19.60;99.90
7240;DHT22;3661;53.288;10.458;2022-08-04T05:20:41;19.70;99.90
7240;DHT22;3661;53.288;10.458;2022-08-04T05:23:18;19.80;99.90
7240;DHT22;3661;53.288;10.458;2022-08-04T05:25:56;19.90;99.90
7240;DHT22;3661;53.288;10.458;2022-08-04T05:28:35;20.00;99.90
7240;DHT22;3661;53.288;10.458;2022-08-04T05:31:11;20.10;99.90
7240;DHT22;3661;53.288;10.458;2022-08-04T05:33:47;20.20;99.90
7240;DHT22;3661;53.288;10.458;2022-08-04T05:36:23;20.30;99.90
7240;DHT22;3661;53.288;10.458;2022-08-04T05:39:00;20.40;99.90
7240;DHT22;3661;53.288;10.458;2022-08-04T05:41:33;20.50;99.90
7240;DHT22;3661;53.288;10.458;2022-08-04T05:44:07;20.70;99.90
7240;DHT22;3661;53.288;10.458;2022-08-04T05:46:44;20.80;99.90
7240;DHT22;3661;53.288;10.458;2022-08-04T05:49:18;20.90;99.90
7240;DHT22;3661;53.288;10.458;2022-08-04T05:51:54;21.00;99.90
7240;DHT22;3661;53.288;10.458;2022-08-04T05:54:30;21.10;99.90
7240;DHT22;3661;53.288;10.458;2022-08-04T05:57:04;21.20;99.90
7240;DHT22;3661;53.288;10.458;2022-08-04T05:59:38;21.30;99.90
7240;DHT22;3661;53.288;10.458;2022-08-04T06:02:13;21.30;99.90
7240;DHT22;3661;53.288;10.458;2022-08-04T06:04:49;21.40;99.90
7240;DHT22;3661;53.288;10.458;2022-08-04T06:07:21;21.60;99.90
7240;DHT22;3661;53.288;10.458;2022-08-04T06:09:57;21.70;99.90
7240;DHT22;3661;53.288;10.458;2022-08-04T06:12:36;21.70;99.90
7240;DHT22;3661;53.288;10.458;2022-08-04T06:15:11;21.80;99.90
7240;DHT22;3661;53.288;10.458;2022-08-04T06:17:48;21.90;99.90
7240;DHT22;3661;53.288;10.458;2022-08-04T06:20:25;22.00;99.90
7240;DHT22;3661;53.288;10.458;2022-08-04T06:23:00;22.10;99.90
7240;DHT22;3661;53.288;10.458;2022-08-04T06:25:54;22.20;99.90
7240;DHT22;3661;53.288;10.458;2022-08-04T06:28:29;22.30;99.90
7240;DHT22;3661;53.288;10.458;2022-08-04T06:31:02;22.50;99.90
7240;DHT22;3661;53.288;10.458;2022-08-04T06:33:39;22.60;99.90
7240;DHT22;3661;53.288;10.458;2022-08-04T06:36:11;22.70;99.90
7240;DHT22;3661;53.288;10.458;2022-08-04T06:38:44;22.80;99.90
7240;DHT22;3661;53.288;10.458;2022-08-04T06:41:29;22.90;99.90
7240;DHT22;3661;53.288;10.458;2022-08-04T06:44:07;23.00;99.90
7240;DHT22;3661;53.288;10.458;2022-08-04T06:46:43;23.20;99.90
7240;DHT22;3661;53.288;10.458;2022-08-04T06:49:19;23.20;99.90
7240;DHT22;3661;53.288;10.458;2022-08-04T06:51:53;23.30;99.90
7240;DHT22;3661;53.288;10.458;2022-08-04T06:54:26;23.40;99.90
7240;DHT22;3661;53.288;10.458;2022-08-04T06:57:01;23.50;99.90
7240;DHT22;3661;53.288;10.458;2022-08-04T06:59:34;23.70;99.90
7240;DHT22;3661;53.288;10.458;2022-08-04T07:02:12;23.80;99.90
7240;DHT22;3661;53.288;10.458;2022-08-04T07:04:45;23.90;99.90
7240;DHT22;3661;53.288;10.458;2022-08-04T07:07:19;24.00;99.90
7240;DHT22;3661;53.288;10.458;2022-08-04T07:09:53;24.20;99.90
7240;DHT22;3661;53.288;10.458;2022-08-04T07:12:27;24.30;99.90
7240;DHT22;3661;53.288;10.458;2022-08-04T07:15:10;24.50;99.90
7240;DHT22;3661;53.288;10.458;2022-08-04T07:17:42;24.60;99.90
7240;DHT22;3661;53.288;10.458;2022-08-04T07:20:15;24.80;99.90
7240;DHT22;3661;53.288;10.458;2022-08-04T07:26:15;25.10;99.90
7240;DHT22;3661;53.288;10.458;2022-08-04T07:28:50;25.30;99.90
7240;DHT22;3661;53.288;10.458;2022-08-04T07:31:22;25.40;99.90
7240;DHT22;3661;53.288;10.458;2022-08-04T07:33:58;25.50;99.90
7240;DHT22;3661;53.288;10.458;2022-08-04T07:36:31;25.70;99.90
7240;DHT22;3661;53.288;10.458;2022-08-04T07:39:04;25.80;99.90
7240;DHT22;3661;53.288;10.458;2022-08-04T07:41:36;26.00;99.90
7240;DHT22;3661;53.288;10.458;2022-08-04T07:44:12;26.10;99.90
7240;DHT22;3661;53.288;10.458;2022-08-04T07:46:45;26.20;99.90
7240;DHT22;3661;53.288;10.458;2022-08-04T07:49:17;26.40;99.90
7240;DHT22;3661;53.288;10.458;2022-08-04T07:51:51;26.50;99.90
7240;DHT22;3661;53.288;10.458;2022-08-04T07:54:24;26.60;99.90
7240;DHT22;3661;53.288;10.458;2022-08-04T07:56:57;26.70;99.90
7240;DHT22;3661;53.288;10.458;2022-08-04T07:59:31;26.80;99.90
7240;DHT22;3661;53.288;10.458;2022-08-04T08:02:04;26.90;99.90
7240;DHT22;3661;53.288;10.458;2022-08-04T08:04:36;27.00;99.90
7240;DHT22;3661;53.288;10.458;2022-08-04T08:07:11;27.20;99.90
7240;DHT22;3661;53.288;10.458;2022-08-04T08:09:43;27.30;99.90
7240;DHT22;3661;53.288;10.458;2022-08-04T08:12:16;27.40;99.90
7240;DHT22;3661;53.288;10.458;2022-08-04T08:14:50;27.60;99.90
7240;DHT22;3661;53.288;10.458;2022-08-04T08:17:22;27.70;99.90
7240;DHT22;3661;53.288;10.458;2022-08-04T08:19:54;27.90;99.90
7240;DHT22;3661;53.288;10.458;2022-08-04T08:22:27;28.00;99.90
7240;DHT22;3661;53.288;10.458;2022-08-04T08:24:59;28.20;99.90
7240;DHT22;3661;53.288;10.458;2022-08-04T08:27:32;28.30;99.90
7240;DHT22;3661;53.288;10.458;2022-08-04T08:30:07;28.50;99.90
7240;DHT22;3661;53.288;10.458;2022-08-04T08:32:39;28.70;99.90
7240;DHT22;3661;53.288;10.458;2022-08-04T08:35:11;28.90;99.90
7240;DHT22;3661;53.288;10.458;2022-08-04T08:37:46;29.10;99.90
7240;DHT22;3661;53.288;10.458;2022-08-04T08:40:29;29.30;99.90
7240;DHT22;3661;53.288;10.458;2022-08-04T08:46:37;29.80;99.90
7240;DHT22;3661;53.288;10.458;2022-08-04T08:49:45;30.10;99.90
7240;DHT22;3661;53.288;10.458;2022-08-04T08:52:35;30.40;99.90
7240;DHT22;3661;53.288;10.458;2022-08-04T08:55:22;30.70;99.90
7240;DHT22;3661;53.288;10.458;2022-08-04T09:01:09;31.30;99.90
7240;DHT22;3661;53.288;10.458;2022-08-04T09:07:05;31.90;99.90
7240;DHT22;3661;53.288;10.458;2022-08-04T09:09:52;32.20;99.90
7240;DHT22;3661;53.288;10.458;2022-08-04T09:12:38;32.40;99.90
7240;DHT22;3661;53.288;10.458;2022-08-04T09:15:15;32.60;99.90
7240;DHT22;3661;53.288;10.458;2022-08-04T09:17:50;32.90;99.90
7240;DHT22;3661;53.288;10.458;2022-08-04T09:20:30;33.10;99.90
7240;DHT22;3661;53.288;10.458;2022-08-04T09:23:14;33.30;99.90
7240;DHT22;3661;53.288;10.458;2022-08-04T09:25:53;33.60;99.90
7240;DHT22;3661;53.288;10.458;2022-08-04T09:28:37;33.90;99.90
7240;DHT22;3661;53.288;10.458;2022-08-04T09:31:18;34.10;99.90
7240;DHT22;3661;53.288;10.458;2022-08-04T09:33:59;34.30;99.90
7240;DHT22;3661;53.288;10.458;2022-08-04T09:36:40;34.50;99.90
7240;DHT22;3661;53.288;10.458;2022-08-04T09:39:25;34.70;99.90
7240;DHT22;3661;53.288;10.458;2022-08-04T09:42:08;34.90;99.80
7240;DHT22;3661;53.288;10.458;2022-08-04T09:44:49;35.00;99.70
7240;DHT22;3661;53.288;10.458;2022-08-04T09:47:30;35.20;99.00
7240;DHT22;3661;53.288;10.458;2022-08-04T09:53:52;35.50;98.30
7240;DHT22;3661;53.288;10.458;2022-08-04T09:56:31;35.70;97.80
7240;DHT22;3661;53.288;10.458;2022-08-04T09:59:16;35.90;97.70
7240;DHT22;3661;53.288;10.458;2022-08-04T10:01:53;36.10;97.90
7240;DHT22;3661;53.288;10.458;2022-08-04T10:04:29;36.40;97.00
7240;DHT22;3661;53.288;10.458;2022-08-04T10:07:18;36.60;96.20
7240;DHT22;3661;53.288;10.458;2022-08-04T10:10:13;36.90;96.30
7240;DHT22;3661;53.288;10.458;2022-08-04T10:15:59;37.40;95.50
7240;DHT22;3661;53.288;10.458;2022-08-04T10:18:43;37.70;94.80
7240;DHT22;3661;53.288;10.458;2022-08-04T10:21:22;37.90;95.10
7240;DHT22;3661;53.288;10.458;2022-08-04T10:24:14;38.10;94.70
7240;DHT22;3661;53.288;10.458;2022-08-04T10:26:56;38.30;93.80
7240;DHT22;3661;53.288;10.458;2022-08-04T10:29:37;38.50;93.10
7240;DHT22;3661;53.288;10.458;2022-08-04T10:32:17;38.70;93.60
7240;DHT22;3661;53.288;10.458;2022-08-04T10:35:01;38.90;93.80
7240;DHT22;3661;53.288;10.458;2022-08-04T10:37:41;39.10;91.10
7240;DHT22;3661;53.288;10.458;2022-08-04T10:40:20;39.20;90.90
7240;DHT22;3661;53.288;10.458;2022-08-04T10:43:24;39.30;89.60
7240;DHT22;3661;53.288;10.458;2022-08-04T10:46:04;39.50;90.10
7240;DHT22;3661;53.288;10.458;2022-08-04T10:48:42;39.50;89.30
7240;DHT22;3661;53.288;10.458;2022-08-04T10:51:22;39.60;89.60
7240;DHT22;3661;53.288;10.458;2022-08-04T10:54:00;39.60;89.00
7240;DHT22;3661;53.288;10.458;2022-08-04T10:56:37;39.80;87.20
7240;DHT22;3661;53.288;10.458;2022-08-04T10:59:15;39.80;84.00
7240;DHT22;3661;53.288;10.458;2022-08-04T11:01:54;39.80;85.90
7240;DHT22;3661;53.288;10.458;2022-08-04T11:04:40;39.80;83.80
7240;DHT22;3661;53.288;10.458;2022-08-04T11:07:13;39.80;76.70
7240;DHT22;3661;53.288;10.458;2022-08-04T11:09:47;39.70;82.90
7240;DHT22;3661;53.288;10.458;2022-08-04T11:12:23;39.70;80.80
7240;DHT22;3661;53.288;10.458;2022-08-04T11:14:58;39.60;81.40
7240;DHT22;3661;53.288;10.458;2022-08-04T11:17:40;39.70;80.80
7240;DHT22;3661;53.288;10.458;2022-08-04T11:20:17;39.80;81.60
7240;DHT22;3661;53.288;10.458;2022-08-04T11:22:57;39.90;79.70
7240;DHT22;3661;53.288;10.458;2022-08-04T11:25:34;40.10;78.40
7240;DHT22;3661;53.288;10.458;2022-08-04T11:28:13;40.10;75.40
7240;DHT22;3661;53.288;10.458;2022-08-04T11:30:52;40.10;75.20
7240;DHT22;3661;53.288;10.458;2022-08-04T11:33:35;40.10;71.80
7240;DHT22;3661;53.288;10.458;2022-08-04T11:36:14;39.90;71.10
7240;DHT22;3661;53.288;10.458;2022-08-04T11:38:55;39.80;72.10
7240;DHT22;3661;53.288;10.458;2022-08-04T11:41:47;39.60;73.20
7240;DHT22;3661;53.288;10.458;2022-08-04T11:44:28;39.40;70.30
7240;DHT22;3661;53.288;10.458;2022-08-04T11:47:06;39.30;71.80
7240;DHT22;3661;53.288;10.458;2022-08-04T11:49:44;39.20;72.40
7240;DHT22;3661;53.288;10.458;2022-08-04T11:52:19;39.10;74.10
7240;DHT22;3661;53.288;10.458;2022-08-04T11:54:53;39.10;70.80
7240;DHT22;3661;53.288;10.458;2022-08-04T11:57:26;39.10;70.90
7240;DHT22;3661;53.288;10.458;2022-08-04T12:00:00;39.10;71.00
7240;DHT22;3661;53.288;10.458;2022-08-04T12:02:53;39.20;69.10
7240;DHT22;3661;53.288;10.458;2022-08-04T12:05:34;39.20;69.90
7240;DHT22;3661;53.288;10.458;2022-08-04T12:08:22;39.20;69.70
7240;DHT22;3661;53.288;10.458;2022-08-04T12:11:06;39.20;65.00
7240;DHT22;3661;53.288;10.458;2022-08-04T12:13:49;39.10;66.50
7240;DHT22;3661;53.288;10.458;2022-08-04T12:16:35;39.00;66.00
7240;DHT22;3661;53.288;10.458;2022-08-04T12:19:16;39.00;66.70
7240;DHT22;3661;53.288;10.458;2022-08-04T12:21:53;39.00;67.40
7240;DHT22;3661;53.288;10.458;2022-08-04T12:24:30;38.90;67.90
7240;DHT22;3661;53.288;10.458;2022-08-04T12:27:11;39.00;67.60
7240;DHT22;3661;53.288;10.458;2022-08-04T12:29:45;39.00;67.00
7240;DHT22;3661;53.288;10.458;2022-08-04T12:32:23;39.00;67.60
7240;DHT22;3661;53.288;10.458;2022-08-04T12:35:04;39.10;65.70
7240;DHT22;3661;53.288;10.458;2022-08-04T12:37:47;39.00;63.10
7240;DHT22;3661;53.288;10.458;2022-08-04T12:40:29;39.00;65.60
7240;DHT22;3661;53.288;10.458;2022-08-04T12:43:09;39.10;66.30
7240;DHT22;3661;53.288;10.458;2022-08-04T12:45:43;39.30;66.40
7240;DHT22;3661;53.288;10.458;2022-08-04T12:48:18;39.40;65.40
7240;DHT22;3661;53.288;10.458;2022-08-04T12:50:54;39.60;64.60
7240;DHT22;3661;53.288;10.458;2022-08-04T12:53:31;39.80;63.30
7240;DHT22;3661;53.288;10.458;2022-08-04T12:56:05;40.00;64.20
7240;DHT22;3661;53.288;10.458;2022-08-04T12:58:41;40.30;65.90
7240;DHT22;3661;53.288;10.458;2022-08-04T13:01:18;40.60;64.70
7240;DHT22;3661;53.288;10.458;2022-08-04T13:03:54;40.80;62.50
7240;DHT22;3661;53.288;10.458;2022-08-04T13:06:28;40.90;60.40
7240;DHT22;3661;53.288;10.458;2022-08-04T13:09:07;41.20;62.60
7240;DHT22;3661;53.288;10.458;2022-08-04T13:11:42;41.40;60.90
7240;DHT22;3661;53.288;10.458;2022-08-04T13:14:14;41.40;58.80
7240;DHT22;3661;53.288;10.458;2022-08-04T13:16:55;41.40;60.30
7240;DHT22;3661;53.288;10.458;2022-08-04T13:19:30;41.30;59.10
7240;DHT22;3661;53.288;10.458;2022-08-04T13:22:02;41.30;59.80
7240;DHT22;3661;53.288;10.458;2022-08-04T13:24:38;41.10;60.10
7240;DHT22;3661;53.288;10.458;2022-08-04T13:27:11;40.90;60.40
7240;DHT22;3661;53.288;10.458;2022-08-04T13:29:45;40.90;59.10
7240;DHT22;3661;53.288;10.458;2022-08-04T13:32:24;40.70;59.70
7240;DHT22;3661;53.288;10.458;2022-08-04T13:34:59;40.60;59.40
7240;DHT22;3661;53.288;10.458;2022-08-04T13:37:35;40.50;59.60
7240;DHT22;3661;53.288;10.458;2022-08-04T13:40:12;40.40;58.50
7240;DHT22;3661;53.288;10.458;2022-08-04T13:42:46;40.10;59.10
7240;DHT22;3661;53.288;10.458;2022-08-04T13:45:20;40.00;59.10
7240;DHT22;3661;53.288;10.458;2022-08-04T13:54:20;39.20;59.20
7240;DHT22;3661;53.288;10.458;2022-08-04T13:56:58;39.00;59.30
7240;DHT22;3661;53.288;10.458;2022-08-04T13:59:33;38.90;61.20
7240;DHT22;3661;53.288;10.458;2022-08-04T14:02:09;38.90;60.80
7240;DHT22;3661;53.288;10.458;2022-08-04T14:04:53;39.00;60.70
7240;DHT22;3661;53.288;10.458;2022-08-04T14:07:27;39.10;60.60
7240;DHT22;3661;53.288;10.458;2022-08-04T14:10:02;39.20;60.40
7240;DHT22;3661;53.288;10.458;2022-08-04T14:12:47;39.40;60.90
7240;DHT22;3661;53.288;10.458;2022-08-04T14:15:35;39.60;60.40
7240;DHT22;3661;53.288;10.458;2022-08-04T14:18:20;39.80;60.60
7240;DHT22;3661;53.288;10.458;2022-08-04T14:21:06;40.00;60.40
7240;DHT22;3661;53.288;10.458;2022-08-04T14:23:46;40.20;60.20
7240;DHT22;3661;53.288;10.458;2022-08-04T14:26:22;40.30;59.70
7240;DHT22;3661;53.288;10.458;2022-08-04T14:29:07;40.40;60.00
7240;DHT22;3661;53.288;10.458;2022-08-04T14:31:39;40.40;59.10
7240;DHT22;3661;53.288;10.458;2022-08-04T14:34:23;40.40;58.00
7240;DHT22;3661;53.288;10.458;2022-08-04T14:37:06;40.30;57.30
7240;DHT22;3661;53.288;10.458;2022-08-04T14:39:40;40.30;57.00
7240;DHT22;3661;53.288;10.458;2022-08-04T14:42:13;40.20;57.40
7240;DHT22;3661;53.288;10.458;2022-08-04T14:44:54;40.20;57.90
7240;DHT22;3661;53.288;10.458;2022-08-04T14:47:38;40.20;57.50
7240;DHT22;3661;53.288;10.458;2022-08-04T14:50:12;40.10;57.50
7240;DHT22;3661;53.288;10.458;2022-08-04T14:52:44;40.00;57.40
7240;DHT22;3661;53.288;10.458;2022-08-04T14:55:18;40.00;57.30
7240;DHT22;3661;53.288;10.458;2022-08-04T14:57:51;40.00;57.10
7240;DHT22;3661;53.288;10.458;2022-08-04T15:00:27;40.00;57.60
7240;DHT22;3661;53.288;10.458;2022-08-04T15:03:01;40.00;57.20
7240;DHT22;3661;53.288;10.458;2022-08-04T15:05:34;40.00;57.50
7240;DHT22;3661;53.288;10.458;2022-08-04T15:08:07;39.90;58.30
7240;DHT22;3661;53.288;10.458;2022-08-04T15:10:40;39.80;57.90
7240;DHT22;3661;53.288;10.458;2022-08-04T15:13:13;39.60;58.20
7240;DHT22;3661;53.288;10.458;2022-08-04T15:15:46;39.50;58.10
7240;DHT22;3661;53.288;10.458;2022-08-04T15:18:19;39.30;57.70
7240;DHT22;3661;53.288;10.458;2022-08-04T15:20:51;39.10;57.40
7240;DHT22;3661;53.288;10.458;2022-08-04T15:23:24;38.80;57.50
7240;DHT22;3661;53.288;10.458;2022-08-04T15:26:00;38.60;56.90
7240;DHT22;3661;53.288;10.458;2022-08-04T15:28:35;38.30;57.40
7240;DHT22;3661;53.288;10.458;2022-08-04T15:31:10;38.10;57.40
7240;DHT22;3661;53.288;10.458;2022-08-04T15:33:43;37.80;57.70
7240;DHT22;3661;53.288;10.458;2022-08-04T15:36:21;37.60;57.80
7240;DHT22;3661;53.288;10.458;2022-08-04T15:39:04;37.40;58.00
7240;DHT22;3661;53.288;10.458;2022-08-04T15:41:58;37.10;58.00
7240;DHT22;3661;53.288;10.458;2022-08-04T15:51:05;36.50;59.40
7240;DHT22;3661;53.288;10.458;2022-08-04T15:56:50;36.00;59.70
7240;DHT22;3661;53.288;10.458;2022-08-04T15:59:57;35.90;59.70
7240;DHT22;3661;53.288;10.458;2022-08-04T16:02:38;35.50;66.70
7240;DHT22;3661;53.288;10.458;2022-08-04T16:05:34;35.20;70.40
7240;DHT22;3661;53.288;10.458;2022-08-04T16:08:12;34.90;71.30
7240;DHT22;3661;53.288;10.458;2022-08-04T16:10:47;34.50;71.20
7240;DHT22;3661;53.288;10.458;2022-08-04T16:13:21;34.10;72.00
7240;DHT22;3661;53.288;10.458;2022-08-04T16:15:54;33.70;73.50
7240;DHT22;3661;53.288;10.458;2022-08-04T16:18:38;33.30;74.20
7240;DHT22;3661;53.288;10.458;2022-08-04T16:21:18;32.90;75.10
7240;DHT22;3661;53.288;10.458;2022-08-04T16:24:18;32.50;75.80
7240;DHT22;3661;53.288;10.458;2022-08-04T16:26:53;32.10;75.80
7240;DHT22;3661;53.288;10.458;2022-08-04T16:29:34;31.80;75.70
7240;DHT22;3661;53.288;10.458;2022-08-04T16:32:16;31.40;76.20
7240;DHT22;3661;53.288;10.458;2022-08-04T16:34:54;31.10;76.40
7240;DHT22;3661;53.288;10.458;2022-08-04T16:37:31;30.80;76.20
7240;DHT22;3661;53.288;10.458;2022-08-04T16:40:25;30.50;75.40
7240;DHT22;3661;53.288;10.458;2022-08-04T16:43:01;30.30;75.40
7240;DHT22;3661;53.288;10.458;2022-08-04T16:45:51;30.10;75.10
7240;DHT22;3661;53.288;10.458;2022-08-04T16:48:26;29.90;75.30
7240;DHT22;3661;53.288;10.458;2022-08-04T16:51:01;29.80;75.70
7240;DHT22;3661;53.288;10.458;2022-08-04T16:53:37;29.70;76.00
7240;DHT22;3661;53.288;10.458;2022-08-04T16:56:12;29.50;76.20
7240;DHT22;3661;53.288;10.458;2022-08-04T16:58:47;29.40;76.10
7240;DHT22;3661;53.288;10.458;2022-08-04T17:01:21;29.30;76.30
7240;DHT22;3661;53.288;10.458;2022-08-04T17:03:53;29.20;76.60
7240;DHT22;3661;53.288;10.458;2022-08-04T17:06:33;29.10;77.10
7240;DHT22;3661;53.288;10.458;2022-08-04T17:09:10;29.00;77.40
7240;DHT22;3661;53.288;10.458;2022-08-04T17:11:46;28.90;77.50
7240;DHT22;3661;53.288;10.458;2022-08-04T17:14:21;28.90;78.00
7240;DHT22;3661;53.288;10.458;2022-08-04T17:16:56;28.80;78.10
7240;DHT22;3661;53.288;10.458;2022-08-04T17:19:30;28.70;78.50
7240;DHT22;3661;53.288;10.458;2022-08-04T17:22:05;28.70;78.90
7240;DHT22;3661;53.288;10.458;2022-08-04T17:24:39;28.60;79.30
7240;DHT22;3661;53.288;10.458;2022-08-04T17:27:13;28.50;79.80
7240;DHT22;3661;53.288;10.458;2022-08-04T17:29:47;28.40;81.00
7240;DHT22;3661;53.288;10.458;2022-08-04T17:32:20;28.40;81.40
7240;DHT22;3661;53.288;10.458;2022-08-04T17:34:53;28.30;82.00
7240;DHT22;3661;53.288;10.458;2022-08-04T17:37:26;28.30;82.90
7240;DHT22;3661;53.288;10.458;2022-08-04T17:40:06;28.20;83.90
7240;DHT22;3661;53.288;10.458;2022-08-04T17:42:40;28.20;84.90
7240;DHT22;3661;53.288;10.458;2022-08-04T17:45:16;28.10;85.70
7240;DHT22;3661;53.288;10.458;2022-08-04T17:47:48;28.00;85.90
7240;DHT22;3661;53.288;10.458;2022-08-04T17:50:24;27.90;86.30
7240;DHT22;3661;53.288;10.458;2022-08-04T17:53:00;27.80;86.40
7240;DHT22;3661;53.288;10.458;2022-08-04T17:55:40;27.70;87.00
7240;DHT22;3661;53.288;10.458;2022-08-04T17:58:15;27.70;87.50
7240;DHT22;3661;53.288;10.458;2022-08-04T18:00:56;27.60;88.00
7240;DHT22;3661;53.288;10.458;2022-08-04T18:03:29;27.50;88.20
7240;DHT22;3661;53.288;10.458;2022-08-04T18:06:10;27.40;88.60
7240;DHT22;3661;53.288;10.458;2022-08-04T18:08:42;27.40;89.10
7240;DHT22;3661;53.288;10.458;2022-08-04T18:11:17;27.30;89.50
7240;DHT22;3661;53.288;10.458;2022-08-04T18:13:53;27.30;89.80
7240;DHT22;3661;53.288;10.458;2022-08-04T18:16:25;27.20;90.10
7240;DHT22;3661;53.288;10.458;2022-08-04T18:19:10;27.10;90.20
7240;DHT22;3661;53.288;10.458;2022-08-04T18:21:43;27.10;90.30